createdAt,value
2022-09-23T00:00:59.499Z,40.00
2022-09-23T00:03:28.605Z,39.90
2022-09-23T00:06:04.154Z,39.80
2022-09-23T00:08:31.808Z,39.70
2022-09-23T00:11:08.006Z,39.70
2022-09-23T00:13:35.319Z,40.40
2022-09-23T00:16:07.779Z,39.60
2022-09-23T00:18:34.621Z,39.60
2022-09-23T00:21:05.771Z,39.60
2022-09-23T00:23:32.965Z,39.60
2022-09-23T00:26:02.578Z,39.60
2022-09-23T00:28:30.319Z,39.50
2022-09-23T00:30:57.343Z,39.50
2022-09-23T00:33:24.142Z,39.40
2022-09-23T00:35:50.885Z,39.40
2022-09-23T00:38:17.679Z,39.40
2022-09-23T00:40:46.153Z,39.40
2022-09-23T00:43:14.910Z,39.40
2022-09-23T00:45:50.268Z,39.40
2022-09-23T00:48:20.461Z,39.30
2022-09-23T00:50:54.309Z,39.20
2022-09-23T00:53:26.679Z,39.20
2022-09-23T00:56:00.222Z,39.10
2022-09-23T00:58:31.677Z,39.20
2022-09-23T01:01:04.850Z,39.10
2022-09-23T01:03:32.066Z,39.10
2022-09-23T01:05:59.949Z,39.00
2022-09-23T01:08:27.966Z,39.00
2022-09-23T01:11:03.360Z,39.00
2022-09-23T01:13:35.839Z,38.90
2022-09-23T01:16:13.608Z,38.80
2022-09-23T01:18:58.470Z,38.80
2022-09-23T01:21:52.536Z,38.70
2022-09-23T01:24:36.316Z,38.70
2022-09-23T01:27:19.909Z,38.70
2022-09-23T01:29:58.886Z,38.60
2022-09-23T01:32:44.230Z,38.50
2022-09-23T01:35:25.848Z,38.50
2022-09-23T01:38:11.415Z,38.60
2022-09-23T01:40:52.925Z,38.60
2022-09-23T01:43:33.871Z,38.70
2022-09-23T01:46:06.850Z,38.80
2022-09-23T01:48:45.200Z,38.90
2022-09-23T01:51:23.078Z,39.00
2022-09-23T01:54:09.752Z,39.10
2022-09-23T01:56:43.810Z,39.10
2022-09-23T01:59:17.475Z,39.00
2022-09-23T02:01:50.864Z,38.80
2022-09-23T02:04:28.193Z,38.70
2022-09-23T02:07:03.410Z,38.60
2022-09-23T02:09:41.460Z,38.40
2022-09-23T02:12:13.728Z,38.40
2022-09-23T02:14:59.054Z,38.30
2022-09-23T02:17:34.701Z,38.20
2022-09-23T02:20:05.664Z,38.10
2022-09-23T02:23:13.069Z,38.10
2022-09-23T02:25:58.363Z,38.00
2022-09-23T02:28:59.458Z,38.00
2022-09-23T02:31:37.434Z,37.90
2022-09-23T02:34:27.745Z,37.90
2022-09-23T02:37:02.931Z,38.00
2022-09-23T02:39:50.028Z,38.10
2022-09-23T02:42:25.592Z,38.10
2022-09-23T02:44:52.587Z,38.10
2022-09-23T02:47:24.517Z,38.10
2022-09-23T02:49:51.971Z,38.10
2022-09-23T02:52:19.061Z,38.00
2022-09-23T02:54:46.022Z,38.00
2022-09-23T02:57:14.392Z,37.90
2022-09-23T02:59:41.661Z,38.00
2022-09-23T03:02:14.796Z,37.90
2022-09-23T03:04:53.877Z,37.90
2022-09-23T03:07:42.840Z,38.60
2022-09-23T03:10:32.169Z,37.90
2022-09-23T03:13:04.812Z,38.00
2022-09-23T03:15:43.284Z,38.10
2022-09-23T03:18:16.745Z,38.20
2022-09-23T03:21:18.278Z,38.30
2022-09-23T03:23:46.937Z,38.40
2022-09-23T03:26:19.675Z,38.40
2022-09-23T03:28:46.969Z,38.40
2022-09-23T03:31:15.287Z,38.30
2022-09-23T03:33:47.120Z,38.40
2022-09-23T03:36:37.277Z,38.30
2022-09-23T03:39:11.726Z,38.20
2022-09-23T03:41:50.864Z,38.10
2022-09-23T03:44:20.657Z,38.10
2022-09-23T03:46:50.241Z,38.00
2022-09-23T03:49:26.309Z,38.00
2022-09-23T03:51:53.812Z,38.10
2022-09-23T03:54:20.925Z,38.20
2022-09-23T03:56:48.078Z,38.30
2022-09-23T03:59:16.086Z,38.30
2022-09-23T04:01:43.900Z,38.30
2022-09-23T04:04:11.190Z,38.30
2022-09-23T04:06:37.966Z,38.20
2022-09-23T04:09:04.724Z,38.10
2022-09-23T04:11:31.548Z,38.20
2022-09-23T04:13:58.473Z,38.20
2022-09-23T04:16:25.302Z,38.10
2022-09-23T04:18:52.152Z,38.00
2022-09-23T04:21:19.272Z,38.00
2022-09-23T04:23:46.514Z,38.00
2022-09-23T04:26:13.569Z,37.90
2022-09-23T04:28:40.997Z,37.80
2022-09-23T04:31:09.439Z,37.80
2022-09-23T04:33:37.579Z,37.80
2022-09-23T04:36:04.707Z,37.90
2022-09-23T04:38:31.459Z,37.90
2022-09-23T04:40:58.845Z,38.00
2022-09-23T04:43:25.932Z,38.00
2022-09-23T04:46:00.732Z,38.00
2022-09-23T04:48:28.387Z,38.10
2022-09-23T04:51:01.439Z,38.00
2022-09-23T04:53:29.294Z,38.00
2022-09-23T04:56:04.904Z,38.00
2022-09-23T04:58:31.842Z,37.90
2022-09-23T05:01:04.405Z,37.90
2022-09-23T05:03:35.166Z,37.80
2022-09-23T05:06:02.125Z,37.80
2022-09-23T05:08:29.792Z,37.80
2022-09-23T05:11:00.649Z,37.70
2022-09-23T05:13:27.901Z,37.70
2022-09-23T05:16:02.986Z,37.60
2022-09-23T05:18:34.385Z,37.70
2022-09-23T05:21:02.168Z,37.80
2022-09-23T05:23:29.954Z,37.80
2022-09-23T05:25:59.095Z,37.80
2022-09-23T05:28:28.234Z,37.40
2022-09-23T05:31:08.756Z,37.50
2022-09-23T05:33:36.907Z,37.60
2022-09-23T05:36:04.694Z,37.70
2022-09-23T05:38:32.467Z,37.70
2022-09-23T05:41:07.733Z,37.70
2022-09-23T05:43:35.346Z,37.70
2022-09-23T05:46:08.334Z,37.70
2022-09-23T05:48:36.235Z,37.70
2022-09-23T05:51:03.914Z,37.70
2022-09-23T05:53:31.178Z,37.70
2022-09-23T05:55:58.215Z,37.70
2022-09-23T05:58:25.327Z,37.70
2022-09-23T06:00:52.360Z,37.70
2022-09-23T06:03:20.459Z,37.80
2022-09-23T06:05:48.418Z,37.80
2022-09-23T06:08:15.214Z,37.90
2022-09-23T06:10:44.172Z,38.10
2022-09-23T06:13:11.421Z,38.10
2022-09-23T06:15:39.172Z,38.10
2022-09-23T06:18:06.859Z,38.10
2022-09-23T06:20:35.185Z,38.20
2022-09-23T06:23:09.447Z,38.10
2022-09-23T06:25:38.516Z,38.20
2022-09-23T06:28:08.141Z,38.00
2022-09-23T06:30:35.033Z,38.00
2022-09-23T06:33:01.893Z,38.70
2022-09-23T06:35:29.121Z,37.90
2022-09-23T06:37:55.884Z,37.90
2022-09-23T06:40:23.818Z,37.90
2022-09-23T06:42:58.404Z,37.90
2022-09-23T06:45:25.964Z,37.90
2022-09-23T06:47:57.733Z,38.00
2022-09-23T06:50:26.325Z,38.00
2022-09-23T06:52:55.987Z,38.10
2022-09-23T06:55:24.620Z,38.10
2022-09-23T06:57:51.481Z,38.20
2022-09-23T07:00:19.195Z,38.90
2022-09-23T07:02:46.402Z,38.30
2022-09-23T07:05:13.605Z,38.30
2022-09-23T07:07:41.270Z,38.30
2022-09-23T07:10:08.350Z,38.30
2022-09-23T07:12:35.148Z,38.30
2022-09-23T07:15:02.067Z,38.30
2022-09-23T07:17:30.359Z,38.40
2022-09-23T07:19:58.391Z,38.40
2022-09-23T07:22:26.540Z,38.50
2022-09-23T07:24:56.050Z,38.60
2022-09-23T07:27:24.565Z,38.60
2022-09-23T07:29:52.106Z,38.90
2022-09-23T07:32:20.445Z,39.00
2022-09-23T07:34:47.629Z,39.10
2022-09-23T07:37:16.041Z,39.20
2022-09-23T07:39:43.459Z,39.00
2022-09-23T07:42:11.880Z,39.10
2022-09-23T07:44:38.734Z,39.20
2022-09-23T07:47:05.624Z,39.20
2022-09-23T07:49:35.578Z,39.30
2022-09-23T07:52:03.092Z,39.30
2022-09-23T07:54:30.026Z,39.30
2022-09-23T07:56:57.125Z,39.30
2022-09-23T07:59:24.444Z,39.40
2022-09-23T08:01:55.443Z,39.50
2022-09-23T08:04:27.733Z,39.50
2022-09-23T08:06:57.658Z,39.50
2022-09-23T08:09:27.729Z,39.50
2022-09-23T08:11:54.781Z,39.60
2022-09-23T08:14:22.418Z,39.70
2022-09-23T08:16:49.833Z,39.70
2022-09-23T08:19:17.052Z,39.90
2022-09-23T08:21:47.484Z,40.00
2022-09-23T08:24:19.249Z,40.20
2022-09-23T08:26:47.638Z,40.30
2022-09-23T08:29:17.375Z,40.40
2022-09-23T08:31:44.380Z,40.50
2022-09-23T08:34:11.559Z,40.70
2022-09-23T08:36:38.546Z,40.70
2022-09-23T08:39:06.494Z,40.70
2022-09-23T08:41:39.383Z,40.70
2022-09-23T08:44:32.895Z,40.80
2022-09-23T08:47:35.643Z,40.90
2022-09-23T08:50:13.210Z,41.00
2022-09-23T08:52:58.120Z,41.10
2022-09-23T08:55:37.664Z,41.10
2022-09-23T08:58:36.633Z,41.30
2022-09-23T09:01:30.480Z,41.20
2022-09-23T09:03:58.705Z,41.20
2022-09-23T09:06:51.806Z,41.30
2022-09-23T09:09:25.876Z,41.20
2022-09-23T09:12:00.290Z,41.00
2022-09-23T09:14:55.651Z,40.70
2022-09-23T09:17:38.879Z,40.50
2022-09-23T09:20:06.365Z,40.50
2022-09-23T09:22:38.794Z,40.50
2022-09-23T09:25:25.480Z,40.50
2022-09-23T09:27:54.577Z,40.50
2022-09-23T09:30:22.242Z,40.30
2022-09-23T09:33:01.729Z,40.00
2022-09-23T09:35:35.062Z,39.90
2022-09-23T09:38:02.054Z,39.70
2022-09-23T09:40:29.424Z,39.80
2022-09-23T09:42:56.198Z,39.80
2022-09-23T09:45:38.464Z,39.80
2022-09-23T09:48:33.113Z,39.90
2022-09-23T09:51:23.571Z,40.00
2022-09-23T09:53:52.618Z,39.90
2022-09-23T09:56:42.024Z,40.60
2022-09-23T09:59:11.467Z,40.00
2022-09-23T10:01:38.399Z,40.10
2022-09-23T10:04:24.889Z,40.20
2022-09-23T10:07:12.269Z,40.30
2022-09-23T10:09:42.836Z,40.40
2022-09-23T10:12:20.948Z,40.50
2022-09-23T10:14:53.172Z,40.50
2022-09-23T10:17:24.428Z,40.50
2022-09-23T10:20:00.816Z,40.60
2022-09-23T10:22:39.680Z,40.70
2022-09-23T10:25:19.911Z,40.70
2022-09-23T10:27:47.098Z,40.70
2022-09-23T10:30:25.392Z,40.70
2022-09-23T10:32:57.601Z,40.80
2022-09-23T10:35:26.486Z,40.80
2022-09-23T10:37:57.693Z,40.80
2022-09-23T10:40:56.259Z,40.80
2022-09-23T10:43:41.511Z,40.90
2022-09-23T10:46:34.924Z,40.90
2022-09-23T10:49:12.223Z,41.00
2022-09-23T10:51:41.977Z,41.10
2022-09-23T10:54:53.638Z,41.00
2022-09-23T10:57:46.539Z,41.00
2022-09-23T11:00:23.052Z,41.00
2022-09-23T11:03:20.377Z,41.00
2022-09-23T11:06:02.162Z,40.80
2022-09-23T11:08:50.890Z,41.40
2022-09-23T11:11:39.345Z,40.70
2022-09-23T11:14:38.756Z,40.70
2022-09-23T11:17:20.709Z,41.40
2022-09-23T11:19:56.501Z,40.70
2022-09-23T11:22:41.180Z,40.70
2022-09-23T11:25:32.088Z,40.70
2022-09-23T11:28:17.936Z,40.70
2022-09-23T11:31:06.307Z,40.70
2022-09-23T11:33:57.410Z,40.80
2022-09-23T11:36:41.966Z,41.10
2022-09-23T11:39:17.847Z,41.30
2022-09-23T11:41:45.984Z,41.50
2022-09-23T11:44:42.902Z,41.40
2022-09-23T11:47:19.583Z,41.20
2022-09-23T11:50:14.940Z,41.20
2022-09-23T11:52:48.013Z,41.10
2022-09-23T11:55:44.816Z,40.90
2022-09-23T11:58:25.295Z,40.60
2022-09-23T12:01:07.369Z,40.40
2022-09-23T12:03:51.975Z,40.30
2022-09-23T12:06:26.857Z,40.10
2022-09-23T12:09:02.387Z,40.10
2022-09-23T12:11:46.409Z,40.10
2022-09-23T12:14:29.888Z,40.20
2022-09-23T12:17:05.491Z,40.30
2022-09-23T12:19:51.696Z,40.40
2022-09-23T12:22:36.657Z,40.60
2022-09-23T12:25:30.959Z,40.80
2022-09-23T12:28:05.952Z,40.80
2022-09-23T12:30:36.527Z,40.90
2022-09-23T12:33:22.523Z,41.00
2022-09-23T12:35:49.345Z,41.00
2022-09-23T12:38:27.261Z,41.00
2022-09-23T12:40:55.827Z,41.00
2022-09-23T12:43:35.456Z,40.90
2022-09-23T12:46:18.935Z,40.90
2022-09-23T12:48:57.883Z,40.90
2022-09-23T12:51:36.033Z,40.70
2022-09-23T12:54:06.097Z,40.70
2022-09-23T12:56:33.084Z,41.50
2022-09-23T12:59:11.306Z,40.80
2022-09-23T13:01:39.184Z,40.70
2022-09-23T13:04:25.038Z,40.60
2022-09-23T13:07:06.436Z,40.60
2022-09-23T13:09:40.970Z,40.60
2022-09-23T13:12:21.390Z,40.70
2022-09-23T13:14:51.967Z,40.80
2022-09-23T13:17:35.965Z,40.70
2022-09-23T13:20:20.899Z,40.70
2022-09-23T13:22:53.162Z,40.80
2022-09-23T13:25:24.394Z,40.80
2022-09-23T13:27:55.493Z,40.70
2022-09-23T13:30:26.610Z,40.70
2022-09-23T13:33:16.226Z,40.70
2022-09-23T13:35:51.251Z,40.60
2022-09-23T13:38:26.777Z,40.60
2022-09-23T13:41:01.786Z,40.60
2022-09-23T13:43:36.514Z,40.50
2022-09-23T13:46:16.869Z,40.50
2022-09-23T13:48:46.101Z,40.70
2022-09-23T13:51:27.666Z,40.90
2022-09-23T13:53:57.777Z,40.80
2022-09-23T13:56:28.797Z,40.70
2022-09-23T13:59:20.110Z,40.70
2022-09-23T14:01:47.267Z,40.60
2022-09-23T14:04:26.667Z,40.50
2022-09-23T14:06:54.504Z,40.40
2022-09-23T14:09:27.350Z,40.20
2022-09-23T14:11:55.760Z,40.00
2022-09-23T14:14:23.202Z,39.80
2022-09-23T14:16:51.798Z,39.80
2022-09-23T14:19:21.294Z,39.70
2022-09-23T14:22:00.095Z,39.80
2022-09-23T14:24:29.685Z,39.80
2022-09-23T14:27:00.724Z,39.80
2022-09-23T14:29:31.742Z,40.00
2022-09-23T14:32:07.389Z,40.00
2022-09-23T14:34:41.346Z,40.20
2022-09-23T14:37:51.747Z,40.30
2022-09-23T14:40:26.364Z,40.30
2022-09-23T14:43:16.788Z,40.40
2022-09-23T14:45:50.351Z,40.40
2022-09-23T14:48:21.842Z,40.40
2022-09-23T14:50:52.101Z,40.30
2022-09-23T14:53:19.058Z,40.20
2022-09-23T14:55:47.635Z,40.10
2022-09-23T14:58:17.003Z,40.10
2022-09-23T15:01:01.322Z,40.10
2022-09-23T15:03:28.860Z,40.10
2022-09-23T15:05:59.763Z,40.20
2022-09-23T15:08:27.918Z,40.10
2022-09-23T15:10:55.301Z,40.20
2022-09-23T15:13:31.523Z,40.30
2022-09-23T15:16:01.781Z,40.30
2022-09-23T15:18:33.149Z,40.30
2022-09-23T15:21:18.704Z,40.40
2022-09-23T15:23:51.608Z,40.30
2022-09-23T15:26:21.491Z,40.40
2022-09-23T15:28:49.761Z,40.40
2022-09-23T15:31:18.700Z,40.50
2022-09-23T15:33:49.645Z,40.60
2022-09-23T15:36:27.755Z,40.60
2022-09-23T15:39:03.193Z,40.70
2022-09-23T15:41:30.198Z,40.70
2022-09-23T15:43:57.150Z,40.80
2022-09-23T15:46:29.567Z,40.80
2022-09-23T15:49:02.902Z,40.70
2022-09-23T15:51:30.265Z,40.70
2022-09-23T15:53:57.738Z,40.70
2022-09-23T15:56:26.995Z,40.70
2022-09-23T15:58:53.780Z,40.70
2022-09-23T16:01:30.177Z,40.80
2022-09-23T16:03:57.526Z,40.90
2022-09-23T16:06:27.685Z,40.80
2022-09-23T16:08:54.806Z,40.80
2022-09-23T16:11:24.804Z,40.80
2022-09-23T16:13:51.946Z,40.80
2022-09-23T16:16:21.132Z,40.80
2022-09-23T16:18:50.051Z,40.70
2022-09-23T16:21:21.250Z,40.80
2022-09-23T16:23:50.092Z,40.80
2022-09-23T16:26:20.463Z,40.80
2022-09-23T16:28:48.871Z,40.80
2022-09-23T16:31:16.227Z,40.90
2022-09-23T16:33:44.438Z,40.80
2022-09-23T16:36:22.335Z,40.80
2022-09-23T16:38:49.380Z,41.00
2022-09-23T16:41:16.208Z,41.10
2022-09-23T16:43:43.025Z,41.10
2022-09-23T16:46:12.629Z,41.20
2022-09-23T16:48:44.231Z,41.30
2022-09-23T16:51:18.647Z,41.30
2022-09-23T16:53:45.598Z,41.40
2022-09-23T16:56:23.047Z,41.50
2022-09-23T16:58:57.055Z,41.70
2022-09-23T17:01:49.053Z,41.80
2022-09-23T17:04:18.215Z,41.90
2022-09-23T17:06:44.918Z,42.10
2022-09-23T17:09:12.271Z,42.20
2022-09-23T17:11:39.259Z,42.30
2022-09-23T17:14:06.406Z,42.50
2022-09-23T17:16:34.734Z,42.70
2022-09-23T17:19:10.323Z,42.90
2022-09-23T17:21:37.454Z,43.10
2022-09-23T17:24:05.026Z,43.20
2022-09-23T17:26:32.125Z,43.40
2022-09-23T17:29:01.472Z,43.50
2022-09-23T17:31:28.713Z,43.60
2022-09-23T17:33:55.548Z,43.60
2022-09-23T17:36:22.440Z,43.70
2022-09-23T17:38:53.290Z,43.80
2022-09-23T17:41:20.741Z,43.90
2022-09-23T17:43:47.572Z,43.80
2022-09-23T17:46:18.608Z,43.90
2022-09-23T17:48:46.658Z,43.90
2022-09-23T17:51:19.747Z,43.80
2022-09-23T17:53:48.768Z,43.90
2022-09-23T17:56:21.410Z,43.80
2022-09-23T17:58:49.717Z,43.80
2022-09-23T18:01:27.494Z,43.90
2022-09-23T18:03:59.849Z,43.80
2022-09-23T18:06:31.740Z,43.80
2022-09-23T18:09:01.524Z,43.90
2022-09-23T18:11:31.169Z,43.90
2022-09-23T18:14:04.441Z,44.00
2022-09-23T18:16:35.553Z,44.00
2022-09-23T18:19:04.353Z,44.00
2022-09-23T18:21:35.454Z,44.10
2022-09-23T18:24:30.817Z,44.00
2022-09-23T18:26:51.185Z,44.10
2022-09-23T18:29:18.540Z,44.10
2022-09-23T18:31:47.705Z,44.00
2022-09-23T18:34:18.979Z,44.10
2022-09-23T18:36:46.066Z,44.10
2022-09-23T18:39:13.295Z,44.10
2022-09-23T18:41:41.048Z,44.10
2022-09-23T18:44:08.355Z,44.10
2022-09-23T18:46:35.177Z,44.10
2022-09-23T18:49:21.099Z,44.10
2022-09-23T18:51:54.406Z,44.00
2022-09-23T18:54:22.882Z,44.00
2022-09-23T18:56:52.374Z,44.00
2022-09-23T18:59:23.671Z,44.00
2022-09-23T19:01:50.964Z,44.00
2022-09-23T19:04:19.938Z,44.00
2022-09-23T19:06:47.281Z,43.90
2022-09-23T19:09:18.398Z,43.80
2022-09-23T19:11:45.826Z,43.80
2022-09-23T19:14:13.380Z,43.70
2022-09-23T19:16:41.742Z,43.80
2022-09-23T19:19:08.966Z,43.70
2022-09-23T19:21:37.188Z,43.60
2022-09-23T19:24:06.204Z,43.70
2022-09-23T19:26:37.569Z,43.70
2022-09-23T19:29:05.987Z,43.70
2022-09-23T19:31:35.604Z,43.60
2022-09-23T19:34:29.088Z,43.60
2022-09-23T19:36:57.362Z,43.60
2022-09-23T19:39:27.363Z,43.60
2022-09-23T19:41:55.773Z,43.70
2022-09-23T19:44:25.070Z,43.70
2022-09-23T19:46:56.452Z,43.70
2022-09-23T19:49:24.591Z,43.70
2022-09-23T19:51:55.078Z,43.70
2022-09-23T19:54:21.859Z,43.60
2022-09-23T19:56:49.590Z,43.60
2022-09-23T19:59:19.056Z,43.50
2022-09-23T20:01:46.786Z,43.50
2022-09-23T20:04:15.545Z,43.40
2022-09-23T20:06:42.660Z,43.40
2022-09-23T20:09:09.635Z,43.40
2022-09-23T20:11:36.690Z,43.40
2022-09-23T20:14:07.070Z,43.40
2022-09-23T20:16:35.758Z,43.40
2022-09-23T20:19:04.159Z,43.40
2022-09-23T20:21:31.136Z,43.40
2022-09-23T20:23:58.242Z,43.40
2022-09-23T20:26:43.482Z,43.40
2022-09-23T20:29:11.041Z,43.30
2022-09-23T20:31:41.516Z,43.30
2022-09-23T20:34:10.380Z,43.30
2022-09-23T20:36:38.938Z,43.30
2022-09-23T20:39:06.034Z,43.30
2022-09-23T20:41:37.712Z,43.30
2022-09-23T20:44:07.500Z,43.30
2022-09-23T20:46:35.649Z,43.20
2022-09-23T20:49:03.618Z,43.20
2022-09-23T20:51:33.133Z,43.10
2022-09-23T20:54:00.500Z,43.10
2022-09-23T20:56:27.740Z,43.10
2022-09-23T20:58:54.617Z,43.00
2022-09-23T21:01:21.956Z,43.00
2022-09-23T21:03:50.267Z,42.90
2022-09-23T21:06:19.010Z,42.80
2022-09-23T21:08:46.395Z,42.70
2022-09-23T21:11:15.836Z,42.70
2022-09-23T21:13:50.932Z,42.70
2022-09-23T21:16:19.954Z,42.70
2022-09-23T21:18:48.033Z,42.70
2022-09-23T21:21:14.943Z,42.60
2022-09-23T21:23:43.346Z,42.60
2022-09-23T21:26:12.618Z,42.60
2022-09-23T21:28:44.660Z,42.60
2022-09-23T21:31:22.776Z,42.50
2022-09-23T21:33:53.846Z,42.50
2022-09-23T21:36:20.916Z,42.50
2022-09-23T21:38:47.664Z,42.50
2022-09-23T21:41:14.979Z,42.50
2022-09-23T21:43:41.975Z,42.50
2022-09-23T21:46:11.450Z,42.50
2022-09-23T21:48:41.108Z,42.50
2022-09-23T21:51:23.111Z,42.40
2022-09-23T21:53:49.951Z,42.50
2022-09-23T21:56:27.954Z,42.50
2022-09-23T21:58:56.720Z,42.50
2022-09-23T22:01:28.824Z,42.50
2022-09-23T22:04:05.018Z,42.50
2022-09-23T22:06:32.549Z,42.50
2022-09-23T22:09:02.140Z,42.50
2022-09-23T22:11:50.096Z,42.40
2022-09-23T22:14:19.592Z,42.50
2022-09-23T22:16:46.827Z,42.50
2022-09-23T22:19:15.032Z,42.50
2022-09-23T22:21:43.908Z,42.50
2022-09-23T22:24:11.941Z,42.50
2022-09-23T22:26:43.803Z,42.50
2022-09-23T22:29:31.730Z,42.50
2022-09-23T22:32:18.122Z,42.50
2022-09-23T22:34:50.451Z,42.50
2022-09-23T22:37:20.990Z,42.50
2022-09-23T22:39:47.745Z,42.50
2022-09-23T22:42:14.619Z,42.50
2022-09-23T22:44:41.596Z,42.50
2022-09-23T22:47:09.970Z,42.50
2022-09-23T22:49:36.945Z,42.50
2022-09-23T22:52:08.343Z,42.40
2022-09-23T22:54:36.402Z,42.40
2022-09-23T22:57:07.589Z,42.40
2022-09-23T22:59:35.417Z,42.40
2022-09-23T23:02:02.989Z,42.40
2022-09-23T23:04:30.283Z,42.40
2022-09-23T23:06:58.594Z,42.30
2022-09-23T23:09:25.665Z,42.30
2022-09-23T23:11:52.639Z,42.30
2022-09-23T23:14:19.470Z,42.30
2022-09-23T23:16:46.773Z,42.30
2022-09-23T23:19:16.990Z,42.20
2022-09-23T23:21:45.411Z,42.20
2022-09-23T23:24:17.721Z,42.20
2022-09-23T23:26:44.623Z,42.20
2022-09-23T23:29:13.524Z,42.20
2022-09-23T23:31:41.051Z,42.20
2022-09-23T23:34:11.862Z,42.20
2022-09-23T23:36:39.409Z,42.20
2022-09-23T23:39:06.330Z,42.20
2022-09-23T23:41:33.614Z,42.20
2022-09-23T23:44:01.198Z,42.30
2022-09-23T23:46:30.208Z,42.30
2022-09-23T23:48:57.999Z,42.30
2022-09-23T23:51:29.936Z,42.30
2022-09-23T23:53:58.622Z,42.30
2022-09-23T23:56:26.330Z,42.30
2022-09-23T23:59:02.469Z,42.20
